Time;durP1;ratioP1;P1;durP2;ratioP2;P2;SDS_P1;SDS_P2;PMS_P1;PMS_P2;Temp;Humidity;BMP_temperature;BMP_pressure;BME280_temperature;BME280_humidity;BME280_pressure;Samples;Min_cycle;Max_cycle;Signal;HPM_P1;HPM_P2
2022/02/27 00:01:06;;;;;;;5.50;5.00;;;16.50;52.40;;;;;;5052863;28;20198;-66
2022/02/27 00:03:31;;;;;;;6.60;4.80;;;16.50;52.40;;;;;;5053164;28;20183;-67
2022/02/27 00:05:57;;;;;;;6.85;6.05;;;16.50;52.40;;;;;;5052146;28;20255;-67
2022/02/27 00:08:22;;;;;;;5.57;4.97;;;16.40;52.40;;;;;;5053143;28;20175;-65
2022/02/27 00:10:48;;;;;;;6.47;5.60;;;16.40;52.70;;;;;;5052980;28;20190;-65
2022/02/27 00:13:13;;;;;;;8.45;5.75;;;16.40;52.30;;;;;;5051773;28;20171;-65
2022/02/27 00:15:39;;;;;;;6.45;5.30;;;16.40;52.40;;;;;;5053186;28;20677;-67
2022/02/27 00:18:08;;;;;;;5.32;4.53;;;16.40;52.40;;;;;;5052280;28;20302;-67
2022/02/27 00:20:34;;;;;;;6.45;5.35;;;16.40;52.30;;;;;;5052299;28;20261;-67
2022/02/27 00:22:59;;;;;;;6.60;5.20;;;16.40;52.30;;;;;;5052692;28;20220;-66
2022/02/27 00:25:25;;;;;;;5.88;5.00;;;16.40;52.40;;;;;;5052631;28;20171;-64
2022/02/27 00:27:51;;;;;;;6.28;4.93;;;16.30;53.00;;;;;;5052084;28;20545;-64
2022/02/27 00:30:17;;;;;;;6.45;5.30;;;16.30;52.30;;;;;;5052429;28;20171;-64
2022/02/27 00:32:42;;;;;;;5.55;4.75;;;16.30;52.40;;;;;;5052590;28;20540;-65
2022/02/27 00:35:08;;;;;;;5.63;4.85;;;16.30;52.40;;;;;;5051791;28;20723;-66
2022/02/27 00:37:34;;;;;;;5.93;5.20;;;16.20;52.30;;;;;;5051673;28;20670;-67
2022/02/27 00:39:59;;;;;;;5.20;4.43;;;16.30;52.30;;;;;;5052323;28;20183;-66
2022/02/27 00:42:25;;;;;;;6.78;4.93;;;16.20;52.30;;;;;;5051937;28;20673;-66
2022/02/27 00:44:50;;;;;;;7.28;4.85;;;16.30;52.40;;;;;;5052521;28;20195;-66
2022/02/27 00:47:19;;;;;;;6.32;5.22;;;16.20;52.30;;;;;;5052149;28;20535;-65
2022/02/27 00:49:44;;;;;;;6.55;4.85;;;16.20;52.20;;;;;;5051934;28;20187;-66
2022/02/27 00:52:10;;;;;;;5.38;4.80;;;16.20;52.40;;;;;;5052312;28;20179;-64
2022/02/27 00:54:35;;;;;;;5.20;4.70;;;16.20;52.30;;;;;;5052603;28;20167;-66
2022/02/27 00:57:01;;;;;;;5.32;4.68;;;16.20;52.30;;;;;;5051548;28;20175;-66
2022/02/27 00:59:26;;;;;;;6.53;5.18;;;16.20;52.30;;;;;;5052232;28;20288;-66
2022/02/27 01:01:52;;;;;;;4.75;4.32;;;16.20;52.30;;;;;;5051590;28;20175;-67
2022/02/27 01:04:17;;;;;;;6.28;4.75;;;16.20;52.30;;;;;;5052639;28;20664;-67
2022/02/27 01:06:43;;;;;;;6.53;4.57;;;16.20;52.30;;;;;;5052480;28;20638;-67
2022/02/27 01:09:08;;;;;;;5.57;4.72;;;16.10;52.20;;;;;;5051298;28;20186;-64
2022/02/27 01:11:34;;;;;;;5.75;4.95;;;16.10;52.30;;;;;;5052156;28;20555;-67
2022/02/27 01:14:00;;;;;;;4.72;4.25;;;16.10;52.30;;;;;;5052023;28;20178;-66
2022/02/27 01:16:26;;;;;;;5.25;4.35;;;16.10;52.30;;;;;;5051575;28;20267;-66
2022/02/27 01:18:51;;;;;;;5.97;4.88;;;16.10;52.30;;;;;;5052355;28;20620;-67
2022/02/27 01:21:17;;;;;;;5.10;4.55;;;16.10;52.30;;;;;;5052128;28;20199;-66
2022/02/27 01:23:43;;;;;;;5.63;4.57;;;16.10;52.30;;;;;;5051603;28;20182;-66
2022/02/27 01:26:09;;;;;;;5.65;4.45;;;16.00;52.20;;;;;;5051885;28;20260;-64
2022/02/27 01:28:34;;;;;;;4.93;4.22;;;16.10;52.30;;;;;;5052345;28;20223;-65
2022/02/27 01:31:00;;;;;;;5.45;4.65;;;16.00;52.20;;;;;;5051066;28;20180;-64
2022/02/27 01:33:25;;;;;;;4.80;4.40;;;16.00;52.20;;;;;;5052042;28;20176;-64
2022/02/27 01:35:51;;;;;;;5.88;4.30;;;16.00;52.20;;;;;;5052285;28;20171;-66
2022/02/27 01:38:16;;;;;;;4.93;4.43;;;16.00;52.20;;;;;;5051107;28;20673;-66
2022/02/27 01:40:42;;;;;;;5.32;4.47;;;16.00;52.20;;;;;;5052187;28;20179;-67
2022/02/27 01:43:07;;;;;;;4.75;4.10;;;16.00;52.30;;;;;;5052006;28;20187;-66
2022/02/27 01:45:33;;;;;;;6.38;4.78;;;16.00;52.20;;;;;;5051276;28;20711;-66
2022/02/27 01:47:58;;;;;;;5.70;4.43;;;16.00;52.30;;;;;;5052391;28;20630;-65
2022/02/27 01:50:24;;;;;;;4.63;4.18;;;15.90;52.20;;;;;;5055639;28;20171;-64
2022/02/27 01:52:49;;;;;;;5.43;4.50;;;15.90;52.20;;;;;;5054940;28;20178;-65
2022/02/27 01:55:15;;;;;;;5.22;4.03;;;15.90;52.20;;;;;;5055263;28;20178;-65
2022/02/27 01:57:42;;;;;;;4.50;4.00;;;15.90;52.20;;;;;;5038424;28;20230;-67
2022/02/27 02:00:08;;;;;;;5.68;4.00;;;15.90;52.30;;;;;;5054459;28;20187;-67
2022/02/27 02:02:33;;;;;;;5.13;4.50;;;15.90;52.30;;;;;;5055299;28;20175;-66
2022/02/27 02:04:59;;;;;;;5.28;4.07;;;15.90;52.40;;;;;;5055232;28;20221;-67
2022/02/27 02:07:24;;;;;;;4.90;4.03;;;15.90;52.30;;;;;;5054505;28;20171;-65
2022/02/27 02:09:53;;;;;;;4.85;4.25;;;15.90;52.50;;;;;;5054082;28;20238;-65
2022/02/27 02:12:18;;;;;;;4.65;4.22;;;15.90;52.40;;;;;;5054514;28;20175;-64
2022/02/27 02:14:44;;;;;;;5.50;4.20;;;15.80;52.40;;;;;;5055122;28;20653;-67
2022/02/27 02:17:09;;;;;;;4.85;4.20;;;15.90;52.50;;;;;;5054952;28;20642;-66
2022/02/27 02:19:35;;;;;;;5.55;4.55;;;15.80;52.40;;;;;;5054291;28;20241;-67
2022/02/27 02:22:01;;;;;;;5.18;4.32;;;15.80;52.30;;;;;;5053480;28;20205;-66
2022/02/27 02:24:27;;;;;;;5.07;4.05;;;15.80;52.40;;;;;;5055059;28;20181;-66
2022/02/27 02:26:52;;;;;;;4.57;3.78;;;15.80;52.40;;;;;;5054201;28;20175;-65
2022/02/27 02:29:20;;;;;;;5.10;4.20;;;15.80;52.40;;;;;;5054896;28;20727;-64
2022/02/27 02:31:47;;;;;;;4.47;3.90;;;15.80;52.40;;;;;;5055060;28;20194;-65
2022/02/27 02:34:14;;;;;;;4.25;3.83;;;15.70;52.40;;;;;;5053981;28;20186;-65
2022/02/27 02:36:40;;;;;;;4.32;3.90;;;15.70;52.50;;;;;;5054838;28;20179;-65
2022/02/27 02:39:07;;;;;;;4.80;3.65;;;15.70;52.40;;;;;;5054366;28;20584;-65
2022/02/27 02:41:32;;;;;;;5.80;3.92;;;15.80;52.40;;;;;;5053895;28;20539;-65
2022/02/27 02:43:58;;;;;;;4.28;3.65;;;15.70;52.40;;;;;;5054456;28;20637;-66
2022/02/27 02:46:23;;;;;;;4.22;3.53;;;15.70;52.40;;;;;;5054705;28;20703;-65
2022/02/27 02:48:49;;;;;;;4.97;4.15;;;15.70;52.40;;;;;;5053779;28;20179;-64
2022/02/27 02:51:14;;;;;;;5.22;4.03;;;15.70;52.50;;;;;;5054303;28;20228;-64
2022/02/27 02:53:40;;;;;;;4.85;4.05;;;15.70;52.40;;;;;;5054497;28;20689;-64
2022/02/27 02:56:06;;;;;;;4.25;3.85;;;15.70;52.50;;;;;;5053351;28;20198;-65
2022/02/27 02:58:32;;;;;;;4.53;4.13;;;15.70;52.50;;;;;;5054018;28;20345;-66
2022/02/27 03:00:58;;;;;;;4.32;3.38;;;15.70;52.60;;;;;;5053042;28;20517;-65
2022/02/27 03:03:24;;;;;;;4.10;3.40;;;15.60;52.40;;;;;;5053701;28;20175;-66
2022/02/27 03:05:49;;;;;;;4.93;3.38;;;15.60;52.40;;;;;;5054234;28;20179;-65
2022/02/27 03:08:15;;;;;;;4.00;3.58;;;15.60;52.30;;;;;;5053876;28;20265;-65
2022/02/27 03:10:40;;;;;;;3.67;3.30;;;15.70;52.40;;;;;;5053318;28;20175;-65
2022/02/27 03:13:06;;;;;;;4.93;3.50;;;15.60;52.40;;;;;;5053606;28;20552;-65
2022/02/27 03:15:31;;;;;;;4.05;3.65;;;15.60;52.50;;;;;;5053398;28;20182;-66
2022/02/27 03:17:57;;;;;;;3.92;3.50;;;15.60;52.40;;;;;;5053780;28;20246;-67
2022/02/27 03:20:22;;;;;;;4.78;4.28;;;15.60;52.50;;;;;;5053847;28;20197;-65
2022/02/27 03:22:48;;;;;;;3.83;3.42;;;15.60;52.50;;;;;;5052401;28;20179;-67
2022/02/27 03:25:13;;;;;;;5.15;3.63;;;15.60;52.40;;;;;;5052695;28;20164;-64
2022/02/27 03:27:39;;;;;;;4.75;3.60;;;15.60;52.50;;;;;;5052842;28;20280;-65
2022/02/27 03:30:05;;;;;;;4.10;3.50;;;15.60;52.50;;;;;;5052061;28;20729;-64
2022/02/27 03:32:30;;;;;;;4.28;3.88;;;15.60;52.50;;;;;;5052647;28;20190;-65
2022/02/27 03:34:56;;;;;;;4.32;3.92;;;15.50;52.60;;;;;;5052587;28;20507;-65
2022/02/27 03:37:21;;;;;;;3.97;3.63;;;15.50;52.50;;;;;;5051874;28;20641;-66
2022/02/27 03:39:47;;;;;;;3.90;3.35;;;15.50;52.50;;;;;;5052636;28;20194;-66
2022/02/27 03:42:12;;;;;;;4.03;3.63;;;15.50;52.50;;;;;;5052278;28;20252;-66
2022/02/27 03:44:38;;;;;;;3.67;3.25;;;15.50;52.50;;;;;;5052087;28;20515;-66
2022/02/27 03:47:03;;;;;;;4.13;3.50;;;15.50;52.50;;;;;;5052162;28;20705;-65
2022/02/27 03:49:29;;;;;;;4.82;3.50;;;15.50;52.50;;;;;;5052874;28;20189;-65
2022/02/27 03:51:54;;;;;;;4.78;3.60;;;15.50;52.50;;;;;;5051287;28;20553;-64
2022/02/27 03:54:21;;;;;;;4.70;3.63;;;15.50;52.50;;;;;;5052446;28;20202;-65
2022/02/27 03:56:47;;;;;;;3.60;3.30;;;15.50;52.50;;;;;;5052316;28;20167;-65
2022/02/27 03:59:12;;;;;;;4.78;3.28;;;15.50;52.50;;;;;;5051136;28;20307;-66
2022/02/27 04:01:38;;;;;;;5.13;3.72;;;15.50;52.50;;;;;;5052539;28;20224;-67
2022/02/27 04:04:03;;;;;;;4.13;3.65;;;15.50;52.50;;;;;;5051981;28;20185;-66
2022/02/27 04:06:30;;;;;;;4.18;3.47;;;15.40;52.40;;;;;;5051536;28;20707;-66
2022/02/27 04:08:55;;;;;;;4.75;3.40;;;15.40;52.40;;;;;;5052081;28;20167;-65
2022/02/27 04:11:21;;;;;;;3.80;3.50;;;15.40;52.50;;;;;;5051992;28;20178;-65
2022/02/27 04:13:47;;;;;;;5.05;3.80;;;15.40;52.40;;;;;;5051635;28;20171;-66
2022/02/27 04:16:12;;;;;;;3.17;2.88;;;15.40;52.50;;;;;;5051849;28;20556;-66
2022/02/27 04:18:38;;;;;;;4.35;3.65;;;15.40;52.50;;;;;;5051871;28;20685;-67
2022/02/27 04:21:04;;;;;;;4.90;3.35;;;15.40;52.60;;;;;;5051114;28;20538;-66
2022/02/27 04:23:29;;;;;;;4.15;3.50;;;15.40;52.50;;;;;;5051872;28;20175;-66
2022/02/27 04:25:55;;;;;;;4.53;3.20;;;15.40;52.50;;;;;;5050881;28;20206;-65
2022/02/27 04:28:20;;;;;;;3.97;3.58;;;15.40;52.60;;;;;;5052192;28;20705;-64
2022/02/27 04:30:46;;;;;;;4.95;3.88;;;15.40;52.60;;;;;;5052010;28;20680;-64
2022/02/27 04:33:11;;;;;;;3.78;3.38;;;15.40;52.60;;;;;;5050952;28;20182;-65
2022/02/27 04:35:37;;;;;;;4.85;3.40;;;15.30;52.50;;;;;;5051961;28;20635;-65
2022/02/27 04:38:02;;;;;;;3.63;3.00;;;15.30;52.60;;;;;;5051398;28;20221;-66
2022/02/27 04:40:28;;;;;;;4.00;3.50;;;15.30;52.50;;;;;;5050970;28;20174;-66
2022/02/27 04:42:53;;;;;;;3.80;3.33;;;15.30;52.50;;;;;;5051433;28;20245;-66
2022/02/27 04:45:19;;;;;;;3.60;3.30;;;15.30;52.50;;;;;;5051693;28;20201;-66
2022/02/27 04:47:45;;;;;;;3.67;3.17;;;15.30;52.50;;;;;;5051218;28;20197;-65
2022/02/27 04:50:10;;;;;;;3.72;3.25;;;15.30;52.50;;;;;;5051432;28;20175;-65
2022/02/27 04:52:36;;;;;;;3.35;3.03;;;15.30;52.60;;;;;;5051673;28;20567;-64
2022/02/27 04:55:02;;;;;;;3.83;3.28;;;15.30;52.60;;;;;;5050767;28;20273;-65
2022/02/27 04:57:27;;;;;;;4.88;3.60;;;15.30;52.60;;;;;;5051779;28;20587;-66
2022/02/27 04:59:53;;;;;;;3.80;3.03;;;15.30;52.60;;;;;;5051382;28;20179;-67
2022/02/27 05:02:18;;;;;;;3.88;3.00;;;15.30;52.60;;;;;;5050778;28;20178;-66
2022/02/27 05:04:44;;;;;;;5.30;3.38;;;15.20;52.50;;;;;;5051620;28;20183;-66
2022/02/27 05:07:10;;;;;;;3.58;2.88;;;15.30;52.70;;;;;;5051406;28;20179;-66
2022/02/27 05:09:35;;;;;;;4.88;3.30;;;15.20;52.60;;;;;;5050732;28;20175;-65
2022/02/27 05:12:01;;;;;;;3.97;3.38;;;15.20;52.60;;;;;;5051152;28;20609;-66
2022/02/27 05:14:26;;;;;;;3.47;3.17;;;15.20;52.60;;;;;;5051615;28;20261;-66
2022/02/27 05:16:52;;;;;;;3.72;3.10;;;15.20;52.60;;;;;;5050819;28;20645;-67
2022/02/27 05:19:17;;;;;;;3.75;3.15;;;15.30;52.60;;;;;;5051601;28;20246;-66
2022/02/27 05:21:43;;;;;;;3.65;2.78;;;15.20;52.60;;;;;;5051378;28;20202;-67
2022/02/27 05:24:10;;;;;;;3.20;2.90;;;15.20;52.60;;;;;;5053027;28;20258;-66
2022/02/27 05:26:35;;;;;;;3.63;2.63;;;15.20;52.60;;;;;;5055069;28;20175;-65
2022/02/27 05:29:01;;;;;;;4.10;2.92;;;15.20;52.60;;;;;;5054759;28;20175;-64
2022/02/27 05:31:26;;;;;;;4.53;3.45;;;15.10;52.60;;;;;;5054788;28;20222;-65
2022/02/27 05:33:52;;;;;;;4.57;3.28;;;15.20;52.70;;;;;;5055087;28;20232;-66
2022/02/27 05:36:17;;;;;;;4.22;3.20;;;15.10;52.60;;;;;;5054192;28;20180;-66
2022/02/27 05:38:43;;;;;;;3.28;2.83;;;15.20;52.60;;;;;;5054883;28;20214;-69
2022/02/27 05:41:08;;;;;;;4.47;2.65;;;15.10;52.60;;;;;;5054576;28;20187;-66
2022/02/27 05:43:34;;;;;;;3.22;2.90;;;15.10;52.60;;;;;;5054473;28;20175;-67
2022/02/27 05:45:59;;;;;;;3.88;3.08;;;15.10;52.60;;;;;;5054895;28;20179;-67
2022/02/27 05:48:25;;;;;;;3.53;2.60;;;15.10;52.60;;;;;;5055194;28;20579;-66
2022/02/27 05:50:50;;;;;;;3.40;3.08;;;15.10;52.60;;;;;;5054161;28;20175;-65
2022/02/27 05:53:16;;;;;;;3.42;2.97;;;15.10;52.70;;;;;;5054640;28;20179;-65
2022/02/27 05:55:41;;;;;;;4.05;2.78;;;15.10;52.60;;;;;;5054759;28;20290;-67
2022/02/27 05:58:07;;;;;;;3.33;3.03;;;15.10;52.70;;;;;;5053974;28;20231;-67
2022/02/27 06:00:32;;;;;;;3.35;3.05;;;15.10;52.60;;;;;;5054611;28;20194;-68
2022/02/27 06:02:58;;;;;;;3.55;3.10;;;15.10;52.70;;;;;;5054470;28;20658;-67
2022/02/27 06:05:24;;;;;;;3.60;2.78;;;15.10;52.70;;;;;;5053839;28;20614;-67
2022/02/27 06:07:49;;;;;;;3.40;2.75;;;15.10;52.70;;;;;;5054577;28;20213;-67
2022/02/27 06:10:15;;;;;;;3.58;2.97;;;15.10;52.50;;;;;;5054202;28;20183;-65
2022/02/27 06:12:49;;;;;;;3.95;3.22;;;15.20;52.50;;;;;;5053783;28;20183;-67
2022/02/27 06:15:16;;;;;;;3.55;3.20;;;15.30;52.20;;;;;;5054280;28;20182;-66
2022/02/27 06:17:42;;;;;;;4.97;2.80;;;15.40;52.40;;;;;;5054226;28;20207;-67
2022/02/27 06:20:08;;;;;;;3.28;2.83;;;15.50;52.30;;;;;;5053161;28;20174;-68
2022/02/27 06:22:44;;;;;;;4.57;3.00;;;15.60;52.20;;;;;;5054045;28;20186;-67
2022/02/27 06:25:10;;;;;;;4.75;2.75;;;15.90;52.00;;;;;;5054354;28;20179;-65
2022/02/27 06:27:42;;;;;;;2.95;2.65;;;16.10;51.80;;;;;;5053610;28;20179;-65
2022/02/27 06:30:08;;;;;;;3.03;2.50;;;16.20;51.30;;;;;;5053907;28;20172;-65
2022/02/27 06:32:34;;;;;;;4.10;2.85;;;16.40;51.10;;;;;;5053398;28;20672;-66
2022/02/27 06:34:59;;;;;;;2.97;2.47;;;16.50;50.80;;;;;;5052369;28;20204;-66
2022/02/27 06:37:25;;;;;;;3.28;2.40;;;16.70;50.70;;;;;;5053935;28;20179;-67
2022/02/27 06:39:50;;;;;;;3.58;2.65;;;16.70;50.50;;;;;;5053098;28;20179;-67
2022/02/27 06:42:16;;;;;;;2.92;2.60;;;16.80;51.10;;;;;;5053458;28;20253;-68
2022/02/27 06:44:41;;;;;;;3.08;2.38;;;16.80;50.40;;;;;;5054007;28;20648;-68
2022/02/27 06:47:07;;;;;;;3.67;2.53;;;16.90;50.30;;;;;;5052838;28;20266;-66
2022/02/27 06:49:32;;;;;;;3.10;2.42;;;16.90;50.20;;;;;;5053728;28;20168;-67
2022/02/27 06:51:58;;;;;;;2.50;2.30;;;17.00;50.20;;;;;;5053585;28;20210;-66
2022/02/27 06:54:24;;;;;;;3.00;2.42;;;17.00;50.00;;;;;;5053180;28;20174;-65
2022/02/27 06:56:50;;;;;;;2.97;2.40;;;17.00;50.00;;;;;;5053672;28;20213;-67
2022/02/27 06:59:15;;;;;;;3.15;2.30;;;16.90;50.20;;;;;;5053096;28;20238;-67
2022/02/27 07:01:43;;;;;;;2.90;2.53;;;16.90;50.30;;;;;;5052798;28;20178;-68
2022/02/27 07:04:08;;;;;;;3.72;2.65;;;16.90;50.40;;;;;;5053341;28;20259;-67
2022/02/27 07:06:34;;;;;;;4.82;2.45;;;16.90;50.50;;;;;;5053356;28;20228;-67
2022/02/27 07:08:59;;;;;;;2.55;2.17;;;16.90;50.60;;;;;;5052350;28;20187;-66
2022/02/27 07:11:25;;;;;;;3.90;2.45;;;16.90;50.60;;;;;;5053318;28;20510;-66
2022/02/27 07:13:50;;;;;;;2.92;2.47;;;17.00;50.50;;;;;;5053405;28;20171;-67
2022/02/27 07:16:17;;;;;;;2.30;2.08;;;17.00;50.40;;;;;;5052076;28;20295;-65
2022/02/27 07:18:43;;;;;;;3.75;2.40;;;17.10;50.50;;;;;;5052910;28;20572;-68
2022/02/27 07:21:08;;;;;;;5.15;2.58;;;17.20;50.60;;;;;;5052867;28;20254;-70
2022/02/27 07:23:34;;;;;;;3.22;2.30;;;17.20;50.50;;;;;;5052394;28;20197;-68
2022/02/27 07:25:59;;;;;;;3.30;2.33;;;17.30;50.40;;;;;;5052597;28;20198;-73
2022/02/27 07:28:25;;;;;;;4.35;2.70;;;17.40;50.60;;;;;;5052893;28;20689;-69
2022/02/27 07:30:50;;;;;;;5.28;2.63;;;17.50;50.60;;;;;;5051904;28;20202;-70
2022/02/27 07:33:16;;;;;;;3.95;2.20;;;17.50;50.40;;;;;;5052239;28;20236;-69
2022/02/27 07:35:41;;;;;;;3.00;2.35;;;17.60;50.40;;;;;;5051620;28;20592;-69
2022/02/27 07:38:07;;;;;;;5.03;2.50;;;17.60;50.30;;;;;;5052266;28;20210;-70
2022/02/27 07:40:32;;;;;;;6.90;2.78;;;17.80;50.30;;;;;;5052638;28;20171;-70
2022/02/27 07:42:58;;;;;;;4.53;2.38;;;17.90;50.20;;;;;;5051382;28;20255;-71
2022/02/27 07:45:23;;;;;;;3.53;2.28;;;17.90;50.00;;;;;;5052133;28;20167;-70
2022/02/27 07:47:49;;;;;;;3.03;2.10;;;18.00;50.00;;;;;;5052189;28;20190;-67
2022/02/27 07:50:14;;;;;;;4.15;2.40;;;18.00;50.60;;;;;;5051336;28;20187;-72
2022/02/27 07:52:40;;;;;;;3.20;2.35;;;18.10;50.00;;;;;;5052379;28;20601;-70
2022/02/27 07:55:06;;;;;;;4.03;2.20;;;18.20;50.00;;;;;;5052170;28;20326;-71
2022/02/27 07:57:31;;;;;;;6.35;2.83;;;18.30;49.90;;;;;;5051569;28;20223;-70
2022/02/27 07:59:57;;;;;;;3.17;2.13;;;18.30;49.90;;;;;;5051845;28;20543;-70
2022/02/27 08:02:22;;;;;;;6.30;2.80;;;18.30;50.00;;;;;;5052137;28;20167;-69
2022/02/27 08:04:48;;;;;;;3.25;2.50;;;18.40;50.00;;;;;;5051471;28;20167;-68
2022/02/27 08:07:13;;;;;;;2.92;1.88;;;18.40;50.00;;;;;;5051666;28;20175;-69
2022/02/27 08:09:39;;;;;;;4.25;2.17;;;18.50;50.00;;;;;;5052159;28;20708;-69
2022/02/27 08:12:04;;;;;;;2.70;2.20;;;18.50;50.00;;;;;;5051026;28;20183;-70
2022/02/27 08:14:30;;;;;;;4.82;2.40;;;18.50;50.00;;;;;;5052058;28;20178;-68
2022/02/27 08:16:55;;;;;;;5.25;2.50;;;18.60;50.10;;;;;;5051603;28;20175;-69
2022/02/27 08:19:21;;;;;;;4.57;2.58;;;18.60;49.90;;;;;;5061363;28;20285;-69
2022/02/27 08:21:46;;;;;;;3.15;2.22;;;18.60;49.70;;;;;;5060116;28;20305;-69
2022/02/27 08:24:12;;;;;;;3.38;2.15;;;18.70;49.80;;;;;;5060773;28;20214;-69
2022/02/27 08:26:37;;;;;;;4.95;2.47;;;18.70;50.40;;;;;;5059330;28;20206;-69
2022/02/27 08:29:05;;;;;;;3.60;2.20;;;18.70;49.80;;;;;;5061911;28;20264;-69
2022/02/27 08:31:31;;;;;;;3.45;1.70;;;18.80;49.80;;;;;;5060449;28;20185;-69
2022/02/27 08:33:56;;;;;;;3.35;1.98;;;18.80;49.90;;;;;;5050393;28;20167;-68
2022/02/27 08:36:22;;;;;;;4.18;2.30;;;18.80;50.00;;;;;;5051578;28;20187;-67
2022/02/27 08:38:47;;;;;;;3.30;2.20;;;18.80;50.00;;;;;;5051556;28;20272;-66
2022/02/27 08:41:14;;;;;;;3.63;2.28;;;18.90;50.20;;;;;;5050687;28;20523;-67
2022/02/27 08:43:39;;;;;;;3.90;2.08;;;18.90;50.20;;;;;;5051765;28;20228;-69
2022/02/27 08:46:05;;;;;;;3.75;2.08;;;18.90;50.20;;;;;;5050646;28;20596;-69
2022/02/27 08:48:30;;;;;;;3.80;2.35;;;18.90;50.20;;;;;;5051480;28;20206;-69
2022/02/27 08:50:56;;;;;;;3.55;1.98;;;18.90;50.30;;;;;;5051477;28;20682;-68
2022/02/27 08:53:21;;;;;;;3.40;2.03;;;18.90;50.40;;;;;;5050918;28;20261;-69
2022/02/27 08:55:47;;;;;;;3.10;1.70;;;18.90;50.50;;;;;;5051685;28;20167;-67
2022/02/27 08:58:12;;;;;;;4.07;2.63;;;18.80;50.40;;;;;;5052187;28;20243;-73
2022/02/27 09:00:38;;;;;;;4.10;2.50;;;18.70;50.60;;;;;;5054847;28;20255;-68
2022/02/27 09:03:04;;;;;;;2.58;1.90;;;18.60;50.50;;;;;;5055137;28;20209;-72
2022/02/27 09:05:30;;;;;;;4.03;2.20;;;18.50;50.60;;;;;;5055493;28;20648;-70
2022/02/27 09:07:55;;;;;;;3.33;2.10;;;18.60;50.70;;;;;;5054686;28;20258;-70
2022/02/27 09:10:21;;;;;;;3.70;2.05;;;18.60;50.80;;;;;;5055596;28;20183;-72
2022/02/27 09:12:46;;;;;;;6.85;2.60;;;18.60;50.80;;;;;;5055498;28;20176;-70
2022/02/27 09:15:13;;;;;;;2.83;2.15;;;18.70;50.80;;;;;;5054414;28;20191;-70
2022/02/27 09:17:38;;;;;;;3.78;1.98;;;18.70;50.70;;;;;;5055072;28;20218;-70
2022/02/27 09:20:05;;;;;;;2.22;1.83;;;18.70;51.40;;;;;;5055070;28;20175;-69
2022/02/27 09:22:31;;;;;;;3.50;1.95;;;18.60;50.80;;;;;;5054632;28;20203;-69
2022/02/27 09:24:56;;;;;;;3.15;2.10;;;18.60;51.10;;;;;;5054820;28;20202;-72
2022/02/27 09:27:22;;;;;;;3.25;2.22;;;18.60;51.20;;;;;;5055248;28;20190;-74
2022/02/27 09:29:47;;;;;;;3.35;1.70;;;18.60;51.30;;;;;;5054355;28;20182;-71
2022/02/27 09:32:13;;;;;;;4.05;2.45;;;18.60;51.40;;;;;;5054736;28;20175;-69
2022/02/27 09:34:38;;;;;;;3.42;2.10;;;18.60;51.40;;;;;;5055072;28;20643;-68
2022/02/27 09:37:04;;;;;;;5.45;2.25;;;18.60;51.60;;;;;;5053858;28;20182;-69
2022/02/27 09:39:30;;;;;;;4.22;1.83;;;18.70;51.60;;;;;;5054801;28;20203;-71
2022/02/27 09:41:57;;;;;;;4.53;2.08;;;18.70;51.50;;;;;;5054343;28;20180;-69
2022/02/27 09:44:22;;;;;;;4.40;1.83;;;18.70;51.50;;;;;;5053882;28;20265;-71
2022/02/27 09:46:48;;;;;;;3.42;1.88;;;18.70;51.50;;;;;;5054501;28;20254;-69
2022/02/27 09:49:14;;;;;;;5.30;2.28;;;18.70;51.70;;;;;;5020424;28;20171;-71
2022/02/27 09:51:39;;;;;;;4.05;1.90;;;18.60;51.70;;;;;;5054034;28;20215;-73
2022/02/27 09:54:05;;;;;;;2.95;2.15;;;18.60;51.70;;;;;;5054606;28;20175;-70
2022/02/27 09:56:31;;;;;;;5.05;2.10;;;18.60;51.70;;;;;;5062195;28;20178;-69
2022/02/27 09:58:56;;;;;;;4.60;2.33;;;18.60;51.90;;;;;;5058542;28;20237;-69
2022/02/27 10:01:22;;;;;;;2.85;1.90;;;18.60;51.90;;;;;;5073293;28;20181;-69
2022/02/27 10:03:47;;;;;;;5.43;2.22;;;18.60;51.90;;;;;;5064081;28;20172;-69
2022/02/27 10:06:17;;;;;;;5.97;2.03;;;18.60;51.80;;;;;;5054027;28;20176;-69
2022/02/27 10:08:44;;;;;;;3.13;1.92;;;18.60;51.80;;;;;;5054035;28;20262;-69
2022/02/27 10:11:17;;;;;;;3.63;1.90;;;18.60;52.40;;;;;;5053317;28;20179;-69
2022/02/27 10:13:51;;;;;;;4.25;2.17;;;18.60;51.80;;;;;;5054563;28;20179;-70
2022/02/27 10:16:23;;;;;;;2.83;1.75;;;18.50;51.80;;;;;;5054181;28;20229;-69
2022/02/27 10:18:58;;;;;;;5.15;1.85;;;18.50;51.70;;;;;;5053154;28;20264;-69
2022/02/27 10:21:41;;;;;;;3.67;1.90;;;18.50;51.70;;;;;;5053998;28;20541;-69
2022/02/27 10:24:08;;;;;;;2.95;1.60;;;18.50;51.80;;;;;;5053649;28;20175;-69
2022/02/27 10:26:35;;;;;;;4.68;1.80;;;18.50;51.80;;;;;;5053209;28;20268;-69
2022/02/27 10:29:13;;;;;;;3.17;1.75;;;18.50;51.80;;;;;;5059607;28;20670;-69
2022/02/27 10:31:43;;;;;;;4.25;1.70;;;18.50;51.70;;;;;;5073423;28;20292;-68
2022/02/27 10:34:20;;;;;;;3.20;1.75;;;18.60;51.70;;;;;;5073546;28;20178;-68
2022/02/27 10:37:05;;;;;;;4.43;2.22;;;18.60;51.60;;;;;;5073910;28;20182;-69
2022/02/27 10:39:44;;;;;;;5.30;2.00;;;18.50;51.60;;;;;;5072978;28;20224;-66
2022/02/27 10:42:20;;;;;;;2.72;1.40;;;18.50;51.60;;;;;;5073751;28;20539;-66
2022/02/27 10:44:58;;;;;;;5.10;2.00;;;18.50;51.60;;;;;;5073895;28;20181;-69
2022/02/27 10:47:26;;;;;;;4.95;2.10;;;18.50;51.60;;;;;;5073184;28;20186;-68
2022/02/27 10:49:53;;;;;;;4.20;2.00;;;18.50;51.60;;;;;;5073646;28;20466;-69
2022/02/27 10:52:24;;;;;;;3.67;2.03;;;18.40;51.60;;;;;;5073838;28;20180;-70
2022/02/27 10:54:51;;;;;;;5.93;2.15;;;18.50;51.60;;;;;;5072823;28;20197;-68
2022/02/27 10:57:40;;;;;;;6.43;1.90;;;18.50;51.60;;;;;;5073094;28;20269;-69
2022/02/27 11:00:19;;;;;;;2.50;1.67;;;18.60;51.70;;;;;;5066627;28;20191;-68
2022/02/27 11:03:08;;;;;;;3.17;1.80;;;18.60;51.70;;;;;;5062312;28;20182;-68
2022/02/27 11:05:34;;;;;;;3.70;2.10;;;18.60;51.70;;;;;;5064303;28;20159;-68
2022/02/27 11:08:01;;;;;;;2.92;1.88;;;18.50;51.60;;;;;;5061549;28;20178;-68
2022/02/27 11:10:29;;;;;;;3.60;1.85;;;18.60;51.60;;;;;;5062466;28;20281;-68
2022/02/27 11:12:57;;;;;;;4.45;1.73;;;18.60;51.60;;;;;;5061856;28;20179;-68
2022/02/27 11:15:23;;;;;;;4.50;1.75;;;18.60;51.50;;;;;;5062265;28;20518;-67
2022/02/27 11:17:49;;;;;;;1.88;1.50;;;18.60;51.50;;;;;;5067862;28;20679;-63
2022/02/27 11:20:15;;;;;;;3.58;1.90;;;18.60;51.40;;;;;;5072053;28;20175;-69
2022/02/27 11:22:41;;;;;;;2.15;1.60;;;18.60;51.40;;;;;;5071700;28;20178;-69
2022/02/27 11:25:08;;;;;;;2.97;1.67;;;18.60;51.30;;;;;;5072613;28;20625;-68
2022/02/27 11:27:48;;;;;;;3.13;1.73;;;18.60;51.30;;;;;;5073111;28;20559;-70
2022/02/27 11:30:16;;;;;;;5.72;2.10;;;18.60;51.20;;;;;;5072404;28;20648;-70
2022/02/27 11:32:47;;;;;;;4.57;2.10;;;18.60;51.20;;;;;;5055339;28;20221;-69
2022/02/27 11:35:50;;;;;;;2.78;1.90;;;18.70;51.30;;;;;;5071657;28;20190;-69
2022/02/27 11:38:20;;;;;;;5.28;2.17;;;18.70;51.30;;;;;;5072482;28;20217;-68
2022/02/27 11:40:56;;;;;;;2.03;1.20;;;18.70;51.30;;;;;;5054514;28;20228;-69
2022/02/27 11:43:43;;;;;;;2.50;1.90;;;18.70;51.40;;;;;;5071844;28;20177;-69
2022/02/27 11:46:10;;;;;;;4.28;1.90;;;18.70;51.40;;;;;;5072531;28;20167;-69
2022/02/27 11:48:59;;;;;;;3.95;1.80;;;18.70;51.40;;;;;;5072617;28;20268;-69
2022/02/27 11:51:37;;;;;;;4.03;1.77;;;18.70;51.40;;;;;;5056177;28;20171;-67
2022/02/27 11:54:23;;;;;;;4.05;1.73;;;18.70;51.20;;;;;;5071919;28;20182;-68
2022/02/27 11:56:57;;;;;;;2.80;2.00;;;18.70;51.10;;;;;;5071422;28;20174;-66
2022/02/27 11:59:43;;;;;;;2.85;2.00;;;18.70;51.10;;;;;;5072030;28;20295;-68
2022/02/27 12:02:22;;;;;;;4.35;1.88;;;18.70;51.20;;;;;;5071616;28;20178;-68
2022/02/27 12:04:49;;;;;;;4.35;1.90;;;18.70;51.10;;;;;;5051631;28;20269;-68
2022/02/27 12:07:14;;;;;;;3.72;1.75;;;18.70;51.10;;;;;;5051987;28;20217;-68
2022/02/27 12:09:52;;;;;;;3.85;1.85;;;18.70;51.00;;;;;;5051940;28;20175;-70
2022/02/27 12:12:36;;;;;;;2.45;1.48;;;18.70;51.00;;;;;;5051289;28;20175;-69
2022/02/27 12:15:35;;;;;;;4.50;1.80;;;18.70;51.00;;;;;;5051501;28;20645;-69
2022/02/27 12:18:07;;;;;;;4.35;1.60;;;18.70;51.00;;;;;;5051029;28;20260;-69
2022/02/27 12:20:45;;;;;;;5.30;1.95;;;18.70;51.00;;;;;;5052268;28;20185;-69
2022/02/27 12:23:33;;;;;;;4.55;1.80;;;18.70;51.00;;;;;;5051537;28;20175;-69
2022/02/27 12:26:00;;;;;;;3.47;1.65;;;18.70;51.00;;;;;;5051114;28;20260;-69
2022/02/27 12:28:53;;;;;;;2.35;1.70;;;18.60;50.90;;;;;;5052021;28;20179;-69
2022/02/27 12:31:19;;;;;;;2.88;1.88;;;18.60;51.00;;;;;;5051094;28;20198;-69
2022/02/27 12:33:45;;;;;;;3.05;1.45;;;18.60;51.00;;;;;;5051816;28;20175;-68
2022/02/27 12:36:10;;;;;;;2.55;1.80;;;18.60;51.00;;;;;;5051691;28;20179;-68
2022/02/27 12:38:36;;;;;;;2.97;1.60;;;18.60;51.00;;;;;;5051017;28;20214;-68
2022/02/27 12:41:03;;;;;;;2.40;1.83;;;18.60;51.00;;;;;;5051376;28;20171;-68
2022/02/27 12:43:29;;;;;;;3.60;1.60;;;18.60;51.00;;;;;;5051669;28;20183;-68
2022/02/27 12:45:55;;;;;;;2.38;1.70;;;18.60;51.00;;;;;;5050418;28;20681;-68
2022/02/27 12:48:22;;;;;;;2.35;1.52;;;18.60;51.00;;;;;;5051511;28;20562;-69